CFQ2 weather

CLOSED Calgary (Westport) Heliport
Calgary, Alberta, Canada

Public forecast

Using degrees Celsius for public forecast. Weather courtesy of forecast.io.

Closest aviation weather report (METAR) to Calgary (Westport) Heliport

Closest report is Calgary / Springbank Airport, 7.8 nm (14.5 km) WNW. Retrieved 2020/07/05 19:00 UTC (34 minutes ago):

CYBW 051900Z AUTO /////KT 9SM FEW200 SCT240 17/04 A3009 RMK WND MISG SLP201 DENSITY ALT 4900FT

Closest aviation forecast (TAF) to Calgary (Westport) Heliport

Closest forecast is Calgary / Springbank Airport, 7.8 nm (14.5 km) WNW. Retrieved 2020/07/05 18:00 UTC (2 hours ago):

TAF CYBW 051738Z 0518/0604 VRB03KT P6SM FEW040 BECMG 0518/0520 17008KT FM052100 17008KT P6SM SCT080 TEMPO 0521/0524 P6SM -SHRA BKN080 PROB30 0521/0524 VRB20G30KT 4SM TSRA OVC060CB FM060000 36008KT P6SM BKN080 TEMPO 0600/0604 P6SM -SHRA PROB30 0600/0604 VRB20G30KT 4SM TSRA OVC060CB RMK FCST BASED ON AUTO OBS NXT FCST BY 060000Z